createdAt,value
2019-04-11T00:01:32.519Z,5.70
2019-04-11T00:03:51.470Z,5.60
2019-04-11T00:06:19.971Z,5.60
2019-04-11T00:08:48.424Z,5.60
2019-04-11T00:11:17.710Z,5.60
2019-04-11T00:13:47.294Z,5.60
2019-04-11T00:16:15.847Z,5.60
2019-04-11T00:18:45.013Z,5.50
2019-04-11T00:21:13.531Z,5.40
2019-04-11T00:23:42.688Z,5.50
2019-04-11T00:26:11.800Z,5.50
2019-04-11T00:28:40.308Z,5.50
2019-04-11T00:31:08.821Z,5.40
2019-04-11T00:33:38.188Z,5.40
2019-04-11T00:36:06.744Z,5.40
2019-04-11T00:38:36.157Z,5.40
2019-04-11T00:41:05.773Z,5.40
2019-04-11T00:43:39.004Z,5.30
2019-04-11T00:46:04.717Z,5.30
2019-04-11T00:48:33.508Z,5.30
2019-04-11T00:51:03.259Z,5.30
2019-04-11T00:53:32.014Z,5.30
2019-04-11T00:56:00.467Z,5.20
2019-04-11T00:58:29.763Z,5.30
2019-04-11T01:00:59.462Z,5.30
2019-04-11T01:03:28.399Z,5.10
2019-04-11T01:05:58.287Z,5.20
2019-04-11T01:08:27.350Z,5.10
2019-04-11T01:10:57.339Z,5.10
2019-04-11T01:13:25.953Z,5.00
2019-04-11T01:16:02.900Z,4.80
2019-04-11T01:18:31.544Z,4.90
2019-04-11T01:21:00.017Z,4.90
2019-04-11T01:23:29.156Z,4.90
2019-04-11T01:25:59.009Z,4.90
2019-04-11T01:28:27.629Z,5.00
2019-04-11T01:31:06.422Z,4.90
2019-04-11T01:33:35.886Z,4.90
2019-04-11T01:36:04.860Z,4.90
2019-04-11T01:38:35.026Z,4.90
2019-04-11T01:41:04.511Z,4.80
2019-04-11T01:43:33.152Z,4.80
2019-04-11T01:46:02.195Z,4.90
2019-04-11T01:48:33.322Z,4.80
2019-04-11T01:51:02.274Z,4.70
2019-04-11T01:53:31.081Z,4.60
2019-04-11T01:55:59.626Z,4.60
2019-04-11T01:58:28.889Z,4.70
2019-04-11T02:01:01.217Z,4.80
2019-04-11T02:03:37.255Z,4.80
2019-04-11T02:06:05.823Z,4.70
2019-04-11T02:08:35.454Z,4.50
2019-04-11T02:11:03.989Z,4.40
2019-04-11T02:13:32.487Z,4.40
2019-04-11T02:16:01.419Z,4.40
2019-04-11T02:18:30.039Z,4.30
2019-04-11T02:20:58.487Z,4.40
2019-04-11T02:23:35.102Z,4.50
2019-04-11T02:26:09.951Z,4.60
2019-04-11T02:28:39.040Z,4.50
2019-04-11T02:31:10.264Z,4.60
2019-04-11T02:33:38.891Z,4.60
2019-04-11T02:36:09.514Z,4.40
2019-04-11T02:38:39.166Z,4.50
2019-04-11T02:41:08.684Z,4.50
2019-04-11T02:43:40.219Z,4.40
2019-04-11T02:46:16.844Z,4.40
2019-04-11T02:48:38.577Z,4.30
2019-04-11T02:51:07.633Z,4.40
2019-04-11T02:53:36.859Z,4.40
2019-04-11T02:56:06.360Z,4.40
2019-04-11T02:58:36.897Z,4.30
2019-04-11T03:01:07.421Z,4.40
2019-04-11T03:03:37.387Z,4.40
2019-04-11T03:06:07.100Z,4.30
2019-04-11T03:08:38.889Z,4.30
2019-04-11T03:11:10.683Z,4.30
2019-04-11T03:13:38.449Z,4.20
2019-04-11T03:16:23.881Z,4.20
2019-04-11T03:18:54.910Z,4.30
2019-04-11T03:21:13.671Z,4.30
2019-04-11T03:23:39.593Z,4.20
2019-04-11T03:26:10.238Z,4.20
2019-04-11T03:28:40.758Z,4.10
2019-04-11T03:31:47.425Z,4.10
2019-04-11T03:34:40.175Z,4.10
2019-04-11T03:39:02.504Z,4.20
2019-04-11T03:41:29.708Z,4.20
2019-04-11T03:43:52.572Z,4.20
2019-04-11T03:46:29.131Z,4.30
2019-04-11T03:48:57.770Z,4.30
2019-04-11T03:51:13.040Z,4.10
2019-04-11T03:53:43.243Z,4.10
2019-04-11T03:56:13.671Z,4.10
2019-04-11T03:58:43.775Z,4.00
2019-04-11T04:01:13.988Z,3.80
2019-04-11T04:03:44.638Z,3.80
2019-04-11T04:06:14.674Z,3.80
2019-04-11T04:08:44.456Z,3.90
2019-04-11T04:11:19.016Z,3.80
2019-04-11T04:13:53.971Z,3.80
2019-04-11T04:16:47.228Z,3.70
2019-04-11T04:19:32.542Z,3.70
2019-04-11T04:22:13.599Z,3.30
2019-04-11T04:24:44.706Z,3.80
2019-04-11T04:27:13.434Z,3.70
2019-04-11T04:29:46.553Z,3.60
2019-04-11T04:32:12.246Z,3.60
2019-04-11T04:34:42.197Z,3.60
2019-04-11T04:37:12.016Z,3.60
2019-04-11T04:39:41.307Z,3.80
2019-04-11T04:42:21.168Z,3.80
2019-04-11T04:44:40.860Z,3.80
2019-04-11T04:47:21.125Z,3.80
2019-04-11T04:49:41.018Z,3.80
2019-04-11T04:52:12.344Z,3.80
2019-04-11T04:54:41.017Z,3.80
2019-04-11T04:57:12.856Z,3.90
2019-04-11T04:59:42.073Z,3.90
2019-04-11T05:02:11.047Z,3.90
2019-04-11T05:04:40.507Z,3.90
2019-04-11T05:07:09.668Z,3.90
2019-04-11T05:09:38.525Z,4.00
2019-04-11T05:12:07.294Z,3.80
2019-04-11T05:14:37.226Z,3.90
2019-04-11T05:17:06.746Z,3.90
2019-04-11T05:19:35.407Z,3.90
2019-04-11T05:22:10.567Z,4.00
2019-04-11T05:24:39.167Z,4.00
2019-04-11T05:27:08.332Z,4.10
2019-04-11T05:29:37.611Z,3.90
2019-04-11T05:32:07.176Z,4.00
2019-04-11T05:34:35.789Z,4.00
2019-04-11T05:37:05.084Z,4.00
2019-04-11T05:39:33.905Z,3.90
2019-04-11T05:42:03.182Z,3.80
2019-04-11T05:44:32.621Z,3.80
2019-04-11T05:47:03.557Z,3.90
2019-04-11T05:49:36.769Z,3.90
2019-04-11T05:52:08.094Z,4.00
2019-04-11T05:54:41.408Z,3.90
2019-04-11T05:57:09.554Z,4.00
2019-04-11T05:59:39.227Z,4.00
2019-04-11T06:02:15.356Z,4.10
2019-04-11T06:04:49.989Z,4.30
2019-04-11T06:07:17.189Z,4.10
2019-04-11T06:09:48.196Z,4.10
2019-04-11T06:12:33.819Z,4.20
2019-04-11T06:15:04.063Z,4.30
2019-04-11T06:17:32.503Z,4.50
2019-04-11T06:20:22.049Z,4.50
2019-04-11T06:22:52.258Z,4.50
2019-04-11T06:25:43.251Z,4.60
2019-04-11T06:28:11.900Z,4.80
2019-04-11T06:30:42.300Z,4.70
2019-04-11T06:33:12.526Z,4.60
2019-04-11T06:35:52.423Z,4.70
2019-04-11T06:38:22.696Z,4.60
2019-04-11T06:40:55.676Z,4.50
2019-04-11T06:43:28.817Z,4.50
2019-04-11T06:46:11.130Z,4.50
2019-04-11T06:48:42.172Z,4.70
2019-04-11T06:51:13.520Z,4.80
2019-04-11T06:53:44.102Z,4.80
2019-04-11T06:56:14.310Z,4.80
2019-04-11T06:58:52.450Z,4.80
2019-04-11T07:01:24.287Z,4.90
2019-04-11T07:03:55.271Z,4.90
2019-04-11T07:06:29.377Z,4.90
2019-04-11T07:09:14.641Z,5.00
2019-04-11T07:11:59.573Z,5.00
2019-04-11T07:14:45.524Z,5.10
2019-04-11T07:17:32.040Z,5.20
2019-04-11T07:20:05.046Z,5.30
2019-04-11T07:22:51.451Z,5.60
2019-04-11T07:25:33.757Z,5.60
2019-04-11T07:28:12.627Z,5.70
2019-04-11T07:31:00.358Z,5.80
2019-04-11T07:33:31.188Z,5.90
2019-04-11T07:36:18.516Z,6.10
2019-04-11T07:38:52.308Z,6.20
2019-04-11T07:41:38.957Z,6.40
2019-04-11T07:44:13.987Z,6.40
2019-04-11T07:47:12.851Z,6.50
2019-04-11T07:49:53.422Z,6.60
2019-04-11T07:52:22.389Z,6.90
2019-04-11T07:54:51.442Z,6.90
2019-04-11T07:57:36.743Z,6.90
2019-04-11T08:00:17.200Z,7.10
2019-04-11T08:02:59.700Z,7.10
2019-04-11T08:05:38.967Z,7.00
2019-04-11T08:08:13.253Z,7.10
2019-04-11T08:10:58.499Z,7.20
2019-04-11T08:13:45.106Z,7.50
2019-04-11T08:16:15.179Z,7.60
2019-04-11T08:18:51.061Z,7.60
2019-04-11T08:21:38.515Z,7.90
2019-04-11T08:24:18.481Z,8.10
2019-04-11T08:26:55.432Z,8.40
2019-04-11T08:29:24.304Z,8.30
2019-04-11T08:32:11.705Z,8.60
2019-04-11T08:34:59.669Z,8.60
2019-04-11T08:37:33.726Z,8.20
2019-04-11T08:40:03.929Z,8.40
2019-04-11T08:42:37.732Z,8.30
2019-04-11T08:45:09.150Z,8.40
2019-04-11T08:47:49.280Z,8.40
2019-04-11T08:50:17.167Z,8.30
2019-04-11T08:52:49.943Z,8.30
2019-04-11T08:55:21.003Z,8.30
2019-04-11T08:57:51.907Z,8.10
2019-04-11T09:00:24.820Z,7.80
2019-04-11T09:03:03.639Z,7.50
2019-04-11T09:05:33.707Z,7.50
2019-04-11T09:08:12.840Z,7.40
2019-04-11T09:11:00.133Z,7.30
2019-04-11T09:13:39.732Z,7.40
2019-04-11T09:16:26.333Z,7.40
2019-04-11T09:18:58.200Z,7.40
2019-04-11T09:21:28.587Z,7.40
2019-04-11T09:23:57.737Z,7.50
2019-04-11T09:26:27.854Z,7.40
2019-04-11T09:28:57.618Z,7.60
2019-04-11T09:31:39.896Z,8.00
2019-04-11T09:34:21.859Z,8.40
2019-04-11T09:36:51.921Z,8.70
2019-04-11T09:39:28.862Z,8.80
2019-04-11T09:42:14.937Z,9.00
2019-04-11T09:44:49.074Z,9.00
2019-04-11T09:47:32.559Z,8.80
2019-04-11T09:50:02.809Z,8.80
2019-04-11T09:52:38.945Z,8.70
2019-04-11T09:55:09.297Z,8.50
2019-04-11T09:57:39.361Z,8.40
2019-04-11T10:00:16.423Z,8.40
2019-04-11T10:02:58.681Z,8.30
2019-04-11T10:05:29.903Z,8.30
2019-04-11T10:08:06.476Z,8.20
2019-04-11T10:10:40.291Z,8.30
2019-04-11T10:13:18.666Z,8.40
2019-04-11T10:16:04.917Z,8.50
2019-04-11T10:18:38.710Z,8.60
2019-04-11T10:21:06.775Z,8.60
2019-04-11T10:23:40.819Z,8.70
2019-04-11T10:26:09.726Z,8.70
2019-04-11T10:28:52.174Z,8.50
2019-04-11T10:31:20.614Z,8.40
2019-04-11T10:34:06.848Z,8.10
2019-04-11T10:36:37.014Z,8.00
2019-04-11T10:39:15.348Z,8.00
2019-04-11T10:41:46.305Z,8.10
2019-04-11T10:44:18.021Z,8.10
2019-04-11T10:46:49.433Z,7.90
2019-04-11T10:49:23.131Z,8.00
2019-04-11T10:52:00.227Z,8.00
2019-04-11T10:54:30.988Z,7.80
2019-04-11T10:57:03.367Z,7.90
2019-04-11T10:59:34.463Z,8.40
2019-04-11T11:02:08.646Z,8.80
2019-04-11T11:04:38.938Z,9.10
2019-04-11T11:07:10.212Z,9.20
2019-04-11T11:09:50.471Z,9.00
2019-04-11T11:12:39.171Z,8.60
2019-04-11T11:15:13.576Z,8.50
2019-04-11T11:18:24.129Z,8.50
2019-04-11T11:20:48.127Z,8.40
2019-04-11T11:23:18.370Z,8.20
2019-04-11T11:25:51.350Z,8.20
2019-04-11T11:28:21.498Z,8.20
2019-04-11T11:30:51.940Z,8.20
2019-04-11T11:33:23.549Z,8.10
2019-04-11T11:35:54.117Z,8.20
2019-04-11T11:38:24.256Z,8.20
2019-04-11T11:41:12.127Z,8.30
2019-04-11T11:43:41.251Z,8.30
2019-04-11T11:46:26.716Z,8.00
2019-04-11T11:48:58.152Z,8.10
2019-04-11T11:51:33.370Z,8.20
2019-04-11T11:54:13.624Z,8.00
2019-04-11T11:56:44.424Z,8.00
2019-04-11T11:59:15.306Z,8.10
2019-04-11T12:01:49.336Z,8.10
2019-04-11T12:04:36.106Z,8.20
2019-04-11T12:07:07.170Z,8.20
2019-04-11T12:09:55.061Z,8.20
2019-04-11T12:12:44.176Z,8.00
2019-04-11T12:15:17.768Z,7.90
2019-04-11T12:17:55.477Z,7.80
2019-04-11T12:20:25.527Z,7.70
2019-04-11T12:22:55.122Z,7.70
2019-04-11T12:25:25.594Z,7.70
2019-04-11T12:27:56.323Z,7.70
2019-04-11T12:30:30.502Z,7.60
2019-04-11T12:33:01.437Z,7.70
2019-04-11T12:35:32.631Z,7.80
2019-04-11T12:38:24.536Z,7.80
2019-04-11T12:40:52.964Z,8.00
2019-04-11T12:43:21.405Z,8.10
2019-04-11T12:46:07.709Z,8.20
2019-04-11T12:48:37.775Z,8.00
2019-04-11T12:51:24.368Z,7.90
2019-04-11T12:53:52.845Z,7.90
2019-04-11T12:56:34.933Z,7.80
2019-04-11T12:59:03.364Z,7.90
2019-04-11T13:01:39.288Z,7.70
2019-04-11T13:04:21.036Z,7.60
2019-04-11T13:07:07.264Z,7.50
2019-04-11T13:09:43.776Z,7.40
2019-04-11T13:12:30.484Z,7.30
2019-04-11T13:15:12.724Z,7.30
2019-04-11T13:17:48.740Z,7.10
2019-04-11T13:20:18.817Z,7.10
2019-04-11T13:22:48.871Z,7.10
2019-04-11T13:25:35.580Z,7.20
2019-04-11T13:28:04.068Z,7.20
2019-04-11T13:30:49.468Z,7.40
2019-04-11T13:33:19.533Z,7.40
2019-04-11T13:35:49.611Z,7.40
2019-04-11T13:38:19.685Z,7.40
2019-04-11T13:40:49.756Z,7.40
2019-04-11T13:43:25.855Z,7.40
2019-04-11T13:46:01.943Z,7.40
2019-04-11T13:48:48.832Z,7.30
2019-04-11T13:51:21.963Z,7.20
2019-04-11T13:54:08.260Z,7.20
2019-04-11T13:56:38.334Z,7.30
2019-04-11T13:59:25.138Z,7.30
2019-04-11T14:02:07.431Z,7.30
2019-04-11T14:04:40.402Z,7.30
2019-04-11T14:07:10.571Z,7.20
2019-04-11T14:09:49.599Z,7.30
2019-04-11T14:12:18.046Z,7.30
2019-04-11T14:14:47.457Z,7.40
2019-04-11T14:17:17.551Z,7.40
2019-04-11T14:20:03.851Z,7.30
2019-04-11T14:22:34.103Z,7.20
2019-04-11T14:25:16.299Z,7.20
2019-04-11T14:27:46.388Z,7.20
2019-04-11T14:30:28.952Z,7.10
2019-04-11T14:32:57.562Z,7.20
2019-04-11T14:35:43.964Z,7.10
2019-04-11T14:38:14.050Z,7.10
2019-04-11T14:41:01.534Z,7.10
2019-04-11T14:43:36.595Z,7.00
2019-04-11T14:46:23.195Z,7.00
2019-04-11T14:48:53.426Z,7.00
2019-04-11T14:51:29.401Z,7.00
2019-04-11T14:54:08.460Z,6.90
2019-04-11T14:56:53.732Z,6.80
2019-04-11T14:59:29.731Z,6.80
2019-04-11T15:02:01.207Z,6.80
2019-04-11T15:04:43.695Z,6.70
2019-04-11T15:07:12.867Z,6.70
2019-04-11T15:09:46.459Z,6.70
2019-04-11T15:12:17.831Z,6.70
2019-04-11T15:15:02.884Z,6.50
2019-04-11T15:17:32.949Z,6.60
2019-04-11T15:20:12.485Z,6.60
2019-04-11T15:22:43.232Z,6.60
2019-04-11T15:25:30.637Z,6.50
2019-04-11T15:28:19.431Z,6.50
2019-04-11T15:30:49.805Z,6.50
2019-04-11T15:33:36.036Z,6.50
2019-04-11T15:36:06.546Z,6.50
2019-04-11T15:38:51.514Z,6.50
2019-04-11T15:41:22.759Z,6.40
2019-04-11T15:44:11.717Z,6.40
2019-04-11T15:46:43.135Z,6.40
2019-04-11T15:49:21.888Z,6.50
2019-04-11T15:51:50.780Z,6.60
2019-04-11T15:54:34.830Z,6.50
2019-04-11T15:57:12.279Z,6.50
2019-04-11T16:00:01.209Z,6.60
2019-04-11T16:02:49.425Z,6.60
2019-04-11T16:05:19.640Z,6.60
2019-04-11T16:08:08.606Z,6.60
2019-04-11T16:10:54.286Z,6.60
2019-04-11T16:13:30.139Z,6.50
2019-04-11T16:16:06.798Z,6.40
2019-04-11T16:18:38.466Z,6.30
2019-04-11T16:21:18.784Z,7.60
2019-04-11T16:23:48.768Z,6.30
2019-04-11T16:26:27.666Z,6.30
2019-04-11T16:29:13.759Z,6.30
2019-04-11T16:31:42.349Z,6.30
2019-04-11T16:34:24.444Z,6.20
2019-04-11T16:36:53.156Z,6.10
2019-04-11T16:39:39.527Z,6.10
2019-04-11T16:42:09.263Z,6.10
2019-04-11T16:44:42.018Z,6.00
2019-04-11T16:47:18.186Z,6.00
2019-04-11T16:49:46.900Z,6.00
2019-04-11T16:52:15.550Z,6.00
2019-04-11T16:54:44.157Z,5.90
2019-04-11T16:57:13.740Z,6.10
2019-04-11T16:59:42.943Z,5.90
2019-04-11T17:02:11.558Z,5.90
2019-04-11T17:04:40.410Z,6.00
2019-04-11T17:07:19.453Z,6.50
2019-04-11T17:09:49.872Z,5.90
2019-04-11T17:12:18.485Z,5.90
2019-04-11T17:14:47.136Z,5.80
2019-04-11T17:17:15.932Z,5.80
2019-04-11T17:19:44.436Z,5.80
2019-04-11T17:22:13.089Z,5.80
2019-04-11T17:24:41.791Z,5.80
2019-04-11T17:27:10.765Z,5.80
2019-04-11T17:29:39.344Z,5.80
2019-04-11T17:32:07.936Z,5.80
2019-04-11T17:34:36.557Z,5.70
2019-04-11T17:37:05.406Z,5.70
2019-04-11T17:39:36.431Z,5.60
2019-04-11T17:42:06.396Z,5.60
2019-04-11T17:44:35.045Z,5.50
2019-04-11T17:47:09.253Z,5.50
2019-04-11T17:49:37.948Z,5.40
2019-04-11T17:52:07.355Z,5.40
2019-04-11T17:54:36.035Z,5.30
2019-04-11T17:57:04.743Z,5.20
2019-04-11T17:59:33.404Z,5.20
2019-04-11T18:02:02.190Z,5.20
2019-04-11T18:04:30.775Z,5.20
2019-04-11T18:06:59.561Z,5.20
2019-04-11T18:09:28.555Z,5.20
2019-04-11T18:11:57.454Z,5.20
2019-04-11T18:14:30.761Z,5.10
2019-04-11T18:17:03.716Z,4.40
2019-04-11T18:19:28.628Z,5.30
2019-04-11T18:22:07.419Z,5.10
2019-04-11T18:24:27.836Z,4.30
2019-04-11T18:26:56.726Z,5.00
2019-04-11T18:29:25.518Z,5.10
2019-04-11T18:31:54.505Z,5.10
2019-04-11T18:34:23.195Z,5.00
2019-04-11T18:36:52.085Z,5.00
2019-04-11T18:39:20.779Z,5.00
2019-04-11T18:41:49.351Z,4.90
2019-04-11T18:44:18.808Z,4.90
2019-04-11T18:46:47.472Z,4.90
2019-04-11T18:49:16.262Z,4.90
2019-04-11T18:51:44.914Z,4.80
2019-04-11T18:54:13.599Z,4.80
2019-04-11T18:56:42.284Z,4.80
2019-04-11T18:59:10.786Z,4.80
2019-04-11T19:01:40.112Z,4.80
2019-04-11T19:04:11.693Z,4.70
2019-04-11T19:06:42.490Z,4.70
2019-04-11T19:09:13.846Z,4.80
2019-04-11T19:11:41.321Z,4.70
2019-04-11T19:14:09.883Z,4.70
2019-04-11T19:16:38.449Z,4.70
2019-04-11T19:19:07.025Z,4.60
2019-04-11T19:21:35.607Z,4.60
2019-04-11T19:24:04.386Z,4.70
2019-04-11T19:26:33.003Z,4.60
2019-04-11T19:29:01.602Z,4.70
2019-04-11T19:31:30.234Z,4.70
2019-04-11T19:33:58.777Z,4.70
2019-04-11T19:36:27.376Z,4.60
2019-04-11T19:38:56.022Z,4.60
2019-04-11T19:41:24.525Z,4.50
2019-04-11T19:43:53.211Z,4.50
2019-04-11T19:46:21.822Z,4.50
2019-04-11T19:48:50.332Z,4.60
2019-04-11T19:51:18.873Z,4.60
2019-04-11T19:53:47.455Z,4.50
2019-04-11T19:56:32.624Z,4.50
2019-04-11T19:59:01.210Z,4.60
2019-04-11T20:01:29.823Z,4.60
2019-04-11T20:03:58.419Z,4.60
2019-04-11T20:06:27.039Z,4.50
2019-04-11T20:08:55.635Z,4.50
2019-04-11T20:11:24.271Z,4.50
2019-04-11T20:13:52.778Z,4.40
2019-04-11T20:16:21.507Z,4.40
2019-04-11T20:18:51.523Z,4.40
2019-04-11T20:21:20.483Z,4.40
2019-04-11T20:23:49.136Z,4.40
2019-04-11T20:26:20.108Z,4.50
2019-04-11T20:28:48.198Z,4.50
2019-04-11T20:31:18.359Z,4.50
2019-04-11T20:33:46.879Z,4.50
2019-04-11T20:36:15.451Z,4.40
2019-04-11T20:38:44.718Z,4.40
2019-04-11T20:41:14.061Z,4.40
2019-04-11T20:43:43.248Z,4.40
2019-04-11T20:46:11.884Z,4.40
2019-04-11T20:48:40.421Z,4.40
2019-04-11T20:51:08.975Z,4.30
2019-04-11T20:53:37.682Z,4.30
2019-04-11T20:56:09.503Z,4.30
2019-04-11T20:58:39.619Z,4.20
2019-04-11T21:01:06.923Z,4.20
2019-04-11T21:03:35.503Z,4.20
2019-04-11T21:06:04.111Z,4.30
2019-04-11T21:08:33.163Z,4.30
2019-04-11T21:11:04.660Z,4.30
2019-04-11T21:13:32.540Z,4.30
2019-04-11T21:16:01.051Z,4.30
2019-04-11T21:18:29.570Z,4.20
2019-04-11T21:20:58.083Z,4.20
2019-04-11T21:23:29.501Z,4.20
2019-04-11T21:25:58.924Z,4.20
2019-04-11T21:28:27.802Z,4.20
2019-04-11T21:30:59.903Z,4.20
2019-04-11T21:33:27.524Z,4.20
2019-04-11T21:35:56.027Z,4.20
2019-04-11T21:38:24.573Z,4.20
2019-04-11T21:40:53.024Z,4.20
2019-04-11T21:43:21.654Z,4.20
2019-04-11T21:45:50.167Z,4.10
2019-04-11T21:48:18.751Z,4.10
2019-04-11T21:50:47.276Z,4.10
2019-04-11T21:53:15.904Z,4.10
2019-04-11T21:55:47.194Z,4.00
2019-04-11T21:58:14.608Z,4.10
2019-04-11T22:00:47.664Z,4.10
2019-04-11T22:03:16.331Z,4.00
2019-04-11T22:05:44.868Z,4.00
2019-04-11T22:08:13.531Z,4.00
2019-04-11T22:10:42.095Z,4.00
2019-04-11T22:13:10.818Z,4.00
2019-04-11T22:15:42.137Z,4.00
2019-04-11T22:18:09.693Z,4.00
2019-04-11T22:20:38.157Z,4.00
2019-04-11T22:23:06.722Z,4.00
2019-04-11T22:25:35.332Z,4.00
2019-04-11T22:28:03.945Z,4.00
2019-04-11T22:30:34.320Z,4.00
2019-04-11T22:33:04.506Z,3.90
2019-04-11T22:35:32.927Z,4.00
2019-04-11T22:38:01.378Z,3.90
2019-04-11T22:40:31.964Z,3.90
2019-04-11T22:42:59.970Z,3.90
2019-04-11T22:45:28.374Z,3.90
2019-04-11T22:47:56.796Z,3.90
2019-04-11T22:50:25.215Z,3.90
2019-04-11T22:52:53.656Z,3.90
2019-04-11T22:55:22.371Z,3.90
2019-04-11T22:57:50.809Z,3.90
2019-04-11T23:00:19.308Z,3.90
2019-04-11T23:02:49.435Z,3.80
2019-04-11T23:05:18.000Z,4.50
2019-04-11T23:07:48.294Z,3.90
2019-04-11T23:10:17.642Z,3.80
2019-04-11T23:12:46.542Z,3.80
2019-04-11T23:15:15.714Z,3.90
2019-04-11T23:17:44.776Z,3.80
2019-04-11T23:20:14.386Z,3.90
2019-04-11T23:22:43.505Z,3.80
2019-04-11T23:25:12.236Z,3.80
2019-04-11T23:27:40.654Z,3.80
2019-04-11T23:30:09.933Z,3.80
2019-04-11T23:32:38.465Z,3.90
2019-04-11T23:35:07.017Z,3.80
2019-04-11T23:37:37.060Z,3.70
2019-04-11T23:40:06.155Z,3.80
2019-04-11T23:42:34.587Z,3.80
2019-04-11T23:45:03.185Z,3.80
2019-04-11T23:47:31.622Z,3.80
2019-04-11T23:50:00.070Z,3.80
2019-04-11T23:52:28.502Z,3.80
2019-04-11T23:54:58.304Z,3.80
2019-04-11T23:57:28.934Z,3.80
2019-04-11T23:59:57.221Z,3.70
